Аэропорт: Уральск. Уральск

ICAO: UARR

METAR:
2018/09/23 11:00
UARR 231100Z 18006MPS 150V220 CAVOK 25/08 Q1019 R22/CLRD70 NOSIG RMK QFE761/1015
METAR:
2015/07/31 21:21
TAF 
      AMD TAF 
      AMD UARR 312316Z 3121/0109 VRB02MPS CAVOK 
      TEMPO 0106/0109 18005MPS